Time;durP1;ratioP1;P1;durP2;ratioP2;P2;SDS_P1;SDS_P2;PMS_P1;PMS_P2;Temp;Humidity;BMP_temperature;BMP_pressure;BME280_temperature;BME280_humidity;BME280_pressure;Samples;Min_cycle;Max_cycle;Signal;HPM_P1;HPM_P2
2022/08/13 00:00:41;;;;;;;2.03;1.73;;;22.90;40.60;;;;;;5069022;28;20112;-51
2022/08/13 00:03:19;;;;;;;1.75;1.50;;;22.90;40.80;;;;;;5069559;28;20557;-49
2022/08/13 00:06:08;;;;;;;1.70;1.60;;;22.90;41.00;;;;;;5050169;28;20041;-53
2022/08/13 00:08:48;;;;;;;3.55;1.98;;;22.80;40.90;;;;;;5061049;28;20040;-50
2022/08/13 00:12:56;;;;;;;2.03;1.83;;;22.70;40.90;;;;;;5068646;28;20087;-50
2022/08/13 00:14:26;;;;;;;6.10;1.85;;;22.60;41.20;;;;;;5054471;28;20068;-53
2022/08/13 00:17:12;;;;;;;2.30;1.92;;;22.60;41.50;;;;;;5066470;28;20072;-53
2022/08/13 00:19:47;;;;;;;4.80;1.77;;;22.60;42.20;;;;;;5069153;28;20460;-52
2022/08/13 00:22:23;;;;;;;2.00;1.77;;;22.50;41.80;;;;;;5062985;28;20480;-53
2022/08/13 00:25:01;;;;;;;2.17;2.08;;;22.40;41.70;;;;;;5044385;28;20421;-51
2022/08/13 00:27:37;;;;;;;2.00;1.80;;;22.40;41.80;;;;;;5062559;28;20052;-51
2022/08/13 00:30:31;;;;;;;2.13;1.60;;;22.30;41.90;;;;;;5029813;28;20060;-53
2022/08/13 00:33:03;;;;;;;3.10;1.70;;;22.30;42.50;;;;;;5047557;28;20059;-53
2022/08/13 00:35:36;;;;;;;;;;;22.20;42.50;;;;;;5055344;28;20405;-54
2022/08/13 00:38:15;;;;;;;1.90;1.60;;;22.20;41.00;;;;;;5068970;28;20482;-53
2022/08/13 00:40:59;;;;;;;2.40;1.77;;;22.20;42.60;;;;;;5064240;28;20108;-49
2022/08/13 00:43:32;;;;;;;2.92;2.65;;;22.10;42.90;;;;;;5044433;28;20492;-51
2022/08/13 00:46:00;;;;;;;2.05;1.67;;;22.10;42.50;;;;;;5052627;28;20041;-53
2022/08/13 00:48:42;;;;;;;2.55;2.10;;;22.00;42.70;;;;;;5065206;28;20045;-52
2022/08/13 00:51:19;;;;;;;1.70;1.50;;;21.90;42.70;;;;;;5048744;28;20099;-51
2022/08/13 00:54:16;;;;;;;1.58;1.50;;;21.90;42.90;;;;;;5047750;28;20533;-53
2022/08/13 00:56:48;;;;;;;1.92;1.75;;;21.90;43.60;;;;;;5066527;28;20033;-53
2022/08/13 00:59:17;;;;;;;2.10;1.85;;;21.80;43.50;;;;;;5069363;28;20184;-53
2022/08/13 01:01:49;;;;;;;2.53;1.63;;;21.80;43.40;;;;;;5051226;28;20136;-50
2022/08/13 01:04:21;;;;;;;3.28;1.65;;;21.70;43.40;;;;;;5064964;28;20065;-51
2022/08/13 01:06:57;;;;;;;1.92;1.63;;;21.70;43.80;;;;;;5070911;28;20075;-53
2022/08/13 01:09:29;;;;;;;1.98;1.83;;;21.60;44.00;;;;;;5061532;28;20689;-54
2022/08/13 01:12:23;;;;;;;1.65;1.55;;;21.60;43.90;;;;;;5067559;28;20147;-49
2022/08/13 01:14:55;;;;;;;2.30;1.85;;;21.50;44.10;;;;;;5073178;28;20508;-53
2022/08/13 01:17:23;;;;;;;2.13;1.92;;;21.50;44.00;;;;;;5071796;28;20041;-50
2022/08/13 01:20:20;;;;;;;2.17;1.92;;;21.50;44.10;;;;;;5048425;28;20109;-53
2022/08/13 01:23:02;;;;;;;2.55;2.30;;;21.40;44.30;;;;;;5061517;28;20120;-52
2022/08/13 01:25:30;;;;;;;1.88;1.77;;;21.40;44.40;;;;;;5071167;28;20434;-53
2022/08/13 01:28:28;;;;;;;2.20;1.80;;;21.30;44.50;;;;;;5066041;28;20088;-52
2022/08/13 01:31:01;;;;;;;1.90;1.70;;;21.30;44.60;;;;;;5052914;28;20053;-53
2022/08/13 01:33:38;;;;;;;1.70;1.60;;;21.30;44.80;;;;;;5072276;28;20040;-53
2022/08/13 01:36:17;;;;;;;2.03;1.80;;;21.20;44.90;;;;;;5066000;28;20472;-53
2022/08/13 01:39:07;;;;;;;2.83;1.90;;;21.20;45.00;;;;;;5055733;28;20470;-53
2022/08/13 01:41:43;;;;;;;2.60;2.00;;;21.10;45.30;;;;;;5058847;28;20037;-51
2022/08/13 01:44:24;;;;;;;1.90;1.67;;;21.10;45.10;;;;;;5072274;28;20049;-52
2022/08/13 01:53:01;;;;;;;2.58;1.80;;;20.90;45.10;;;;;;5071804;28;20397;-53
2022/08/13 01:55:39;;;;;;;4.97;2.40;;;20.90;45.30;;;;;;5057938;28;20048;-49
2022/08/13 01:58:31;;;;;;;3.60;1.60;;;20.80;45.60;;;;;;5055727;28;20041;-50
2022/08/13 02:01:03;;;;;;;2.78;1.85;;;20.80;45.80;;;;;;5069410;28;20041;-52
2022/08/13 02:03:38;;;;;;;1.98;1.77;;;20.80;45.80;;;;;;5071152;28;20048;-49
2022/08/13 02:06:08;;;;;;;2.85;2.22;;;20.70;45.70;;;;;;5058534;28;20049;-50
2022/08/13 02:08:57;;;;;;;1.80;1.70;;;20.70;45.80;;;;;;5057149;28;20040;-53
2022/08/13 02:11:26;;;;;;;3.72;2.63;;;20.70;45.90;;;;;;5070988;28;20053;-50
2022/08/13 02:13:55;;;;;;;2.45;2.00;;;20.60;45.80;;;;;;5071659;28;20074;-50
2022/08/13 02:16:29;;;;;;;2.20;2.03;;;20.50;45.80;;;;;;5058195;28;20501;-50
2022/08/13 02:19:07;;;;;;;1.83;1.65;;;20.50;46.10;;;;;;5062520;28;20508;-53
2022/08/13 02:21:48;;;;;;;3.15;1.80;;;20.50;46.00;;;;;;5070339;28;20667;-48
2022/08/13 02:24:18;;;;;;;2.47;1.70;;;20.50;46.00;;;;;;5053806;28;20099;-53
2022/08/13 02:26:50;;;;;;;2.63;1.90;;;20.40;46.10;;;;;;5058324;28;20068;-53
2022/08/13 02:29:22;;;;;;;1.85;1.73;;;20.40;46.10;;;;;;5055546;28;20041;-50
2022/08/13 02:31:50;;;;;;;1.77;1.67;;;20.40;46.20;;;;;;5058719;28;20052;-50
2022/08/13 02:34:39;;;;;;;1.98;1.88;;;20.30;46.20;;;;;;5036823;28;20193;-53
2022/08/13 02:37:11;;;;;;;2.03;1.80;;;20.30;46.30;;;;;;5055565;28;20786;-50
2022/08/13 02:40:04;;;;;;;2.60;1.70;;;20.20;46.60;;;;;;5071920;28;20389;-53
2022/08/13 02:42:33;;;;;;;1.85;1.70;;;20.20;46.80;;;;;;5060493;28;20494;-53
2022/08/13 02:45:03;;;;;;;2.35;1.73;;;20.20;46.70;;;;;;5066547;28;20071;-53
2022/08/13 02:47:37;;;;;;;2.35;2.15;;;20.10;47.30;;;;;;5070670;28;20110;-51
2022/08/13 02:50:11;;;;;;;1.95;1.80;;;20.10;46.60;;;;;;5053786;28;20084;-50
2022/08/13 02:52:43;;;;;;;3.40;1.90;;;20.00;46.50;;;;;;5048008;28;20044;-53
2022/08/13 02:55:28;;;;;;;2.10;1.90;;;20.00;46.60;;;;;;5049181;28;20061;-53
2022/08/13 02:58:01;;;;;;;3.70;2.03;;;20.00;46.90;;;;;;5068265;28;20033;-53
2022/08/13 03:00:30;;;;;;;3.28;1.50;;;19.90;47.00;;;;;;5070983;28;20045;-51
2022/08/13 03:03:00;;;;;;;1.70;1.60;;;19.90;47.20;;;;;;5052352;28;20049;-51
2022/08/13 03:05:30;;;;;;;1.92;1.83;;;19.90;47.30;;;;;;5070878;28;20527;-49
2022/08/13 03:08:17;;;;;;;4.32;2.17;;;19.80;47.40;;;;;;5068604;28;20049;-52
2022/08/13 03:11:04;;;;;;;2.85;1.80;;;19.80;47.40;;;;;;5057428;28;20041;-50
2022/08/13 03:13:40;;;;;;;2.85;2.00;;;19.70;47.50;;;;;;5058503;28;20037;-48
2022/08/13 03:16:18;;;;;;;2.08;1.60;;;19.70;48.10;;;;;;5068209;28;20044;-53
2022/08/13 03:18:48;;;;;;;1.90;1.80;;;19.70;48.30;;;;;;5070362;28;20420;-53
2022/08/13 03:21:22;;;;;;;2.28;1.73;;;19.70;48.20;;;;;;5062864;28;20037;-50
2022/08/13 03:24:21;;;;;;;2.58;1.77;;;19.60;48.20;;;;;;5059447;28;20452;-53
2022/08/13 03:27:01;;;;;;;2.45;1.92;;;19.60;48.70;;;;;;5069493;28;20067;-53
2022/08/13 03:29:35;;;;;;;3.33;3.03;;;19.50;48.10;;;;;;5061368;28;20041;-52
2022/08/13 03:32:25;;;;;;;1.83;1.73;;;19.50;48.40;;;;;;5045146;28;20131;-50
2022/08/13 03:35:11;;;;;;;3.10;2.05;;;19.50;48.20;;;;;;5057718;28;20126;-53
2022/08/13 03:37:53;;;;;;;3.33;1.75;;;19.50;48.30;;;;;;5069938;28;20408;-53
2022/08/13 03:43:17;;;;;;;3.33;2.08;;;19.30;48.30;;;;;;5052463;28;20040;-53
2022/08/13 03:45:45;;;;;;;1.77;1.67;;;19.30;48.30;;;;;;5064974;28;20040;-53
2022/08/13 03:48:15;;;;;;;1.90;1.77;;;19.40;48.60;;;;;;5068057;28;20040;-54
2022/08/13 03:50:48;;;;;;;2.05;1.85;;;19.20;48.50;;;;;;5048355;28;20128;-50
2022/08/13 03:53:22;;;;;;;1.83;1.73;;;19.30;48.90;;;;;;5062682;28;20096;-52
2022/08/13 03:56:15;;;;;;;2.17;1.98;;;19.20;48.80;;;;;;5069528;28;20559;-52
2022/08/13 03:58:46;;;;;;;3.25;1.67;;;19.10;48.90;;;;;;5048547;28;20072;-54
2022/08/13 04:01:17;;;;;;;3.03;2.30;;;19.10;49.00;;;;;;5049798;28;20041;-50
2022/08/13 04:03:52;;;;;;;2.65;1.58;;;19.10;49.20;;;;;;5063456;28;20048;-53
2022/08/13 04:06:26;;;;;;;2.70;2.13;;;19.10;49.10;;;;;;5054235;28;20047;-53
2022/08/13 04:08:58;;;;;;;2.60;1.83;;;19.10;49.40;;;;;;5058601;28;20048;-52
2022/08/13 04:11:28;;;;;;;2.20;1.70;;;19.00;49.20;;;;;;5055655;28;20040;-49
2022/08/13 04:13:56;;;;;;;1.98;1.80;;;19.00;49.50;;;;;;5070665;28;20505;-53
2022/08/13 04:16:33;;;;;;;3.58;1.83;;;19.00;49.40;;;;;;5069595;28;20056;-49
2022/08/13 04:19:03;;;;;;;1.90;1.77;;;18.90;49.50;;;;;;5057058;28;20099;-53
2022/08/13 04:21:37;;;;;;;4.43;2.20;;;18.90;49.50;;;;;;5066598;28;20401;-53
2022/08/13 04:24:07;;;;;;;2.55;2.13;;;18.90;49.70;;;;;;5070490;28;20036;-53
2022/08/13 04:26:43;;;;;;;1.70;1.40;;;18.90;49.60;;;;;;5068892;28;20035;-50
2022/08/13 04:29:16;;;;;;;2.78;2.13;;;18.90;49.70;;;;;;5060011;28;20041;-53
2022/08/13 04:31:45;;;;;;;2.47;1.98;;;18.80;49.70;;;;;;5068918;28;20049;-50
2022/08/13 04:34:23;;;;;;;2.65;2.22;;;18.80;49.80;;;;;;5068774;28;20063;-52
2022/08/13 04:37:10;;;;;;;2.53;1.90;;;18.80;50.40;;;;;;5062847;28;20044;-52
2022/08/13 04:39:45;;;;;;;2.00;1.85;;;18.80;50.10;;;;;;5064385;28;20431;-49
2022/08/13 04:42:54;;;;;;;2.10;2.00;;;18.80;50.10;;;;;;5059849;28;20105;-53
2022/08/13 04:45:23;;;;;;;4.68;2.17;;;18.80;51.10;;;;;;5065201;28;20036;-53
2022/08/13 04:47:53;;;;;;;2.97;2.78;;;18.80;50.50;;;;;;5052344;28;20072;-53
2022/08/13 04:50:21;;;;;;;2.85;2.40;;;18.70;50.50;;;;;;5074304;28;20128;-49
2022/08/13 04:52:57;;;;;;;2.28;1.67;;;18.70;50.60;;;;;;5073085;28;20032;-53
2022/08/13 04:55:25;;;;;;;2.35;2.25;;;18.70;50.70;;;;;;5053329;28;20386;-52
2022/08/13 04:58:15;;;;;;;2.83;2.10;;;18.70;50.80;;;;;;5072519;28;20068;-52
2022/08/13 05:00:45;;;;;;;;;;;18.70;50.90;;;;;;5074133;28;20054;-50
2022/08/13 05:03:27;;;;;;;3.72;2.20;;;18.80;50.20;;;;;;5051339;28;19924;-51
2022/08/13 05:06:19;;;;;;;2.15;2.03;;;18.80;50.50;;;;;;5056108;28;20056;-49
2022/08/13 05:08:50;;;;;;;3.30;2.10;;;18.80;50.80;;;;;;5069311;28;20079;-50
2022/08/13 05:11:21;;;;;;;2.58;2.10;;;18.80;51.10;;;;;;5034117;28;20561;-50
2022/08/13 05:13:56;;;;;;;2.50;2.03;;;18.80;51.30;;;;;;5033960;28;20049;-49
2022/08/13 05:16:23;;;;;;;2.50;2.30;;;18.80;51.40;;;;;;5055990;28;20129;-50
2022/08/13 05:18:57;;;;;;;2.38;2.28;;;18.80;51.60;;;;;;5065699;28;20039;-50
2022/08/13 05:21:25;;;;;;;2.50;2.30;;;18.80;51.70;;;;;;5072990;28;20047;-49
2022/08/13 05:24:12;;;;;;;2.70;2.17;;;18.80;51.90;;;;;;5047365;28;20488;-52
2022/08/13 05:27:01;;;;;;;2.35;2.00;;;18.90;51.90;;;;;;5061438;28;20123;-53
2022/08/13 05:29:38;;;;;;;2.58;2.38;;;19.00;52.00;;;;;;5070988;28;20432;-51
2022/08/13 05:32:30;;;;;;;4.18;2.50;;;19.00;52.10;;;;;;5071983;28;20049;-51
2022/08/13 05:35:11;;;;;;;4.40;2.20;;;19.00;52.30;;;;;;5056443;28;20928;-49
2022/08/13 05:37:40;;;;;;;2.65;2.45;;;19.10;52.40;;;;;;5069549;28;20067;-50
2022/08/13 05:40:29;;;;;;;4.90;2.38;;;19.10;52.40;;;;;;5067420;28;20048;-50
2022/08/13 05:43:19;;;;;;;3.25;2.30;;;19.10;52.60;;;;;;5051174;28;20901;-53
2022/08/13 05:45:57;;;;;;;3.15;2.50;;;19.20;52.90;;;;;;5069736;28;20040;-52
2022/08/13 05:48:38;;;;;;;3.22;2.50;;;19.20;53.40;;;;;;5071490;28;20052;-55
2022/08/13 05:51:13;;;;;;;2.50;2.30;;;19.20;53.50;;;;;;5064321;28;20041;-53
2022/08/13 05:53:42;;;;;;;2.70;2.35;;;19.30;53.30;;;;;;5061567;28;20044;-52
2022/08/13 05:56:35;;;;;;;2.85;2.58;;;19.30;53.70;;;;;;5031334;28;20049;-53
2022/08/13 05:59:03;;;;;;;3.20;2.25;;;19.40;53.60;;;;;;5036378;28;20033;-55
2022/08/13 06:04:27;;;;;;;2.60;2.40;;;19.50;53.70;;;;;;5059138;28;20063;-55
2022/08/13 06:07:09;;;;;;;3.53;2.17;;;19.60;53.90;;;;;;5071108;28;20041;-53
2022/08/13 06:09:39;;;;;;;3.13;2.55;;;19.60;54.00;;;;;;5060265;28;20098;-49
2022/08/13 06:12:08;;;;;;;2.53;2.33;;;19.70;54.10;;;;;;5051226;28;20068;-53
2022/08/13 06:14:56;;;;;;;2.40;2.20;;;19.80;54.20;;;;;;5062184;28;20064;-56
2022/08/13 06:17:34;;;;;;;3.38;2.42;;;19.90;54.20;;;;;;5047293;28;20632;-52
2022/08/13 06:20:11;;;;;;;4.88;2.90;;;19.90;54.70;;;;;;5042995;28;20094;-53
2022/08/13 06:22:45;;;;;;;3.55;3.05;;;20.00;55.80;;;;;;5046394;28;20049;-53
2022/08/13 06:25:12;;;;;;;2.85;2.50;;;20.10;55.00;;;;;;5046644;28;20094;-50
2022/08/13 06:27:38;;;;;;;4.10;2.97;;;20.10;54.90;;;;;;5049375;28;20041;-51
2022/08/13 06:30:25;;;;;;;4.47;2.92;;;20.20;55.20;;;;;;5059034;28;20041;-55
2022/08/13 06:33:03;;;;;;;4.15;2.70;;;20.30;55.30;;;;;;5051793;28;20591;-56
2022/08/13 06:35:51;;;;;;;3.90;2.83;;;20.40;55.60;;;;;;5050127;28;20390;-53
2022/08/13 06:38:35;;;;;;;5.55;2.65;;;20.50;54.30;;;;;;5045470;28;20400;-51
2022/08/13 06:41:06;;;;;;;7.32;2.58;;;20.70;55.60;;;;;;5048822;28;20033;-49
2022/08/13 06:43:35;;;;;;;3.70;2.85;;;20.70;54.00;;;;;;5070596;28;20083;-55
2022/08/13 06:46:25;;;;;;;8.45;3.88;;;20.70;54.90;;;;;;5070515;28;20090;-49
2022/08/13 06:48:57;;;;;;;7.85;2.90;;;20.90;53.50;;;;;;5049394;28;20052;-52
2022/08/13 06:51:25;;;;;;;3.85;2.53;;;20.90;54.10;;;;;;5060908;28;20048;-50
2022/08/13 06:53:54;;;;;;;3.55;2.90;;;21.00;53.30;;;;;;5047803;28;20491;-55
2022/08/13 06:56:41;;;;;;;2.85;2.58;;;21.10;53.60;;;;;;5048877;28;20072;-52
2022/08/13 06:59:25;;;;;;;8.73;3.38;;;21.20;53.50;;;;;;5076439;28;20048;-56
2022/08/13 07:02:17;;;;;;;2.67;2.05;;;21.40;51.90;;;;;;5060244;28;20375;-53
2022/08/13 07:04:48;;;;;;;5.32;2.88;;;21.50;51.90;;;;;;5055342;28;20097;-50
2022/08/13 07:07:21;;;;;;;4.97;2.40;;;21.60;51.60;;;;;;5070346;28;20544;-54
2022/08/13 07:09:51;;;;;;;5.07;2.00;;;21.70;51.60;;;;;;5058377;28;20578;-49
2022/08/13 07:12:18;;;;;;;5.90;2.20;;;21.80;50.60;;;;;;5060611;28;20051;-49
2022/08/13 07:14:46;;;;;;;3.28;2.20;;;21.90;50.70;;;;;;5070016;28;20397;-52
2022/08/13 07:17:28;;;;;;;2.50;1.90;;;22.00;50.50;;;;;;5050715;28;20048;-53
2022/08/13 07:20:03;;;;;;;8.73;2.03;;;22.10;49.80;;;;;;5061680;28;20553;-52
2022/08/13 07:22:34;;;;;;;4.80;1.60;;;22.20;50.30;;;;;;5071176;28;20504;-50
2022/08/13 07:25:28;;;;;;;4.70;2.05;;;22.30;48.80;;;;;;5051620;28;20401;-50
2022/08/13 07:28:18;;;;;;;2.60;1.75;;;22.50;48.20;;;;;;5062623;28;20040;-53
2022/08/13 07:31:06;;;;;;;3.95;1.58;;;22.60;47.70;;;;;;5064865;28;20046;-55
2022/08/13 07:33:42;;;;;;;2.22;1.77;;;22.70;47.70;;;;;;5069900;28;20562;-52
2022/08/13 07:36:24;;;;;;;3.67;1.65;;;22.90;47.10;;;;;;5049972;28;20439;-49
2022/08/13 07:38:52;;;;;;;4.37;1.97;;;23.00;47.10;;;;;;5058179;28;20045;-50
2022/08/13 07:41:21;;;;;;;1.95;1.50;;;23.10;46.60;;;;;;5057952;28;20037;-49
2022/08/13 07:43:48;;;;;;;3.03;1.95;;;23.20;46.20;;;;;;5046608;28;20502;-49
2022/08/13 07:46:34;;;;;;;1.77;1.67;;;23.30;46.00;;;;;;5044985;28;20041;-50
2022/08/13 07:49:03;;;;;;;2.40;1.88;;;23.50;45.60;;;;;;5062563;28;20393;-53
2022/08/13 07:51:31;;;;;;;3.78;1.80;;;23.60;45.60;;;;;;5047864;28;20069;-49
2022/08/13 07:54:05;;;;;;;3.72;2.47;;;23.70;45.50;;;;;;5043164;28;20140;-49
2022/08/13 07:56:36;;;;;;;5.10;2.03;;;23.80;44.80;;;;;;5055970;28;20051;-51
2022/08/13 07:59:15;;;;;;;4.88;2.25;;;23.90;44.60;;;;;;5055264;28;20503;-52
2022/08/13 08:01:52;;;;;;;2.85;1.80;;;24.00;44.40;;;;;;5049529;28;20033;-51
2022/08/13 08:04:41;;;;;;;3.83;1.80;;;24.10;44.50;;;;;;5048412;28;20098;-55
2022/08/13 08:07:16;;;;;;;4.30;1.63;;;24.20;44.10;;;;;;5048705;28;20436;-49
2022/08/13 08:09:43;;;;;;;2.10;1.65;;;24.30;43.80;;;;;;5059516;28;20477;-53
2022/08/13 08:14:55;;;;;;;1.40;1.30;;;24.50;43.30;;;;;;5064170;28;20172;-50
2022/08/13 08:17:26;;;;;;;1.75;1.65;;;24.60;42.90;;;;;;5070253;28;20412;-49
2022/08/13 08:20:22;;;;;;;1.98;1.50;;;24.70;42.70;;;;;;5055747;28;20041;-53
2022/08/13 08:23:10;;;;;;;2.00;1.20;;;24.80;42.30;;;;;;5066959;28;20090;-50
2022/08/13 08:25:41;;;;;;;3.08;1.50;;;24.90;42.00;;;;;;5064655;28;20048;-53
2022/08/13 08:28:30;;;;;;;1.50;1.40;;;25.00;41.90;;;;;;5065295;28;20045;-52
2022/08/13 08:31:04;;;;;;;3.17;1.58;;;25.10;42.60;;;;;;5054916;28;20185;-52
2022/08/13 08:33:54;;;;;;;2.05;1.40;;;25.20;41.90;;;;;;5051129;28;20599;-51
2022/08/13 08:36:22;;;;;;;1.90;1.65;;;25.30;41.70;;;;;;5045576;28;20048;-52
2022/08/13 08:44:57;;;;;;;1.90;1.80;;;25.60;41.30;;;;;;5068544;28;20114;-53
2022/08/13 08:47:32;;;;;;;2.50;1.52;;;25.70;41.10;;;;;;5058336;28;20033;-51
2022/08/13 08:50:20;;;;;;;2.05;1.52;;;25.80;40.60;;;;;;5051932;28;20052;-52
2022/08/13 08:56:08;;;;;;;3.75;1.70;;;26.00;40.20;;;;;;5045715;28;20509;-53
2022/08/13 08:58:38;;;;;;;2.70;1.38;;;26.10;40.30;;;;;;5041884;28;20041;-49
2022/08/13 09:01:13;;;;;;;1.58;1.52;;;26.10;40.70;;;;;;5051962;28;20045;-53
2022/08/13 09:03:42;;;;;;;1.83;1.17;;;26.20;40.20;;;;;;5061036;28;20043;-53
2022/08/13 09:06:24;;;;;;;;;;;26.30;39.60;;;;;;5049326;28;20055;-50
2022/08/13 09:09:13;;;;;;;1.00;0.77;;;26.40;40.00;;;;;;5044809;28;19921;-50
2022/08/13 09:11:46;;;;;;;1.40;1.00;;;26.50;39.50;;;;;;5054463;28;20051;-53
2022/08/13 09:14:22;;;;;;;2.65;1.35;;;26.60;39.10;;;;;;5064898;28;20040;-53
2022/08/13 09:16:50;;;;;;;1.40;1.33;;;26.70;39.30;;;;;;5048935;28;20117;-50
2022/08/13 09:19:19;;;;;;;2.10;1.25;;;26.80;38.70;;;;;;5051959;28;20044;-53
2022/08/13 09:22:06;;;;;;;1.95;1.27;;;26.90;38.60;;;;;;5057809;28;20049;-51
2022/08/13 09:24:38;;;;;;;1.83;1.25;;;27.00;38.00;;;;;;5060513;28;20497;-53
2022/08/13 09:27:06;;;;;;;2.22;1.10;;;27.10;37.80;;;;;;5045550;28;20057;-49
2022/08/13 09:29:33;;;;;;;4.07;1.35;;;27.20;37.40;;;;;;5063047;28;20075;-54
2022/08/13 09:32:05;;;;;;;1.90;1.08;;;27.30;37.70;;;;;;5072449;28;20554;-52
2022/08/13 09:34:34;;;;;;;2.83;1.30;;;27.30;37.60;;;;;;5064192;28;20076;-49
2022/08/13 09:37:07;;;;;;;;;;;27.50;37.20;;;;;;5051401;28;20456;-53
2022/08/13 09:39:52;;;;;;;3.05;1.23;;;27.50;37.60;;;;;;5062412;28;19920;-50
2022/08/13 09:42:32;;;;;;;1.13;1.00;;;27.60;36.80;;;;;;5072168;28;20078;-53
2022/08/13 09:45:00;;;;;;;3.67;1.45;;;27.70;36.50;;;;;;5071381;28;20047;-53
2022/08/13 09:47:27;;;;;;;1.65;1.40;;;27.80;36.40;;;;;;5053181;28;20037;-52
2022/08/13 09:50:15;;;;;;;1.45;1.23;;;27.80;36.20;;;;;;5064586;28;20050;-50
2022/08/13 09:52:46;;;;;;;1.50;1.00;;;27.90;35.70;;;;;;5072918;28;20048;-52
2022/08/13 09:55:13;;;;;;;2.30;1.25;;;27.90;35.50;;;;;;5056057;28;20758;-54
2022/08/13 09:58:00;;;;;;;1.65;1.20;;;28.00;35.30;;;;;;5062865;28;20072;-49
2022/08/13 10:00:29;;;;;;;1.85;1.30;;;28.10;35.30;;;;;;5070899;28;20052;-51
2022/08/13 10:03:04;;;;;;;4.50;0.97;;;28.20;34.80;;;;;;5059428;28;20033;-54
2022/08/13 10:05:35;;;;;;;0.82;0.82;;;28.30;35.20;;;;;;5054119;28;20041;-53
2022/08/13 10:08:06;;;;;;;2.45;1.20;;;28.40;34.90;;;;;;5060406;28;20102;-53
2022/08/13 10:10:36;;;;;;;1.70;0.98;;;28.40;35.10;;;;;;5071351;28;20461;-51
2022/08/13 10:13:03;;;;;;;1.48;0.90;;;28.50;34.90;;;;;;5091094;22;20095;-49
2022/08/13 10:15:39;;;;;;;1.35;1.27;;;28.50;34.40;;;;;;5047439;28;20075;-48
2022/08/13 10:18:09;;;;;;;1.38;0.93;;;28.70;34.20;;;;;;5065121;28;20064;-48
2022/08/13 10:20:45;;;;;;;1.92;1.30;;;28.80;34.20;;;;;;5057698;28;20114;-52
2022/08/13 10:23:15;;;;;;;1.23;1.10;;;28.80;33.90;;;;;;5058923;28;20045;-54
2022/08/13 10:25:43;;;;;;;1.08;1.05;;;28.90;33.80;;;;;;5051445;28;20076;-52
2022/08/13 10:28:24;;;;;;;2.78;1.10;;;28.90;33.90;;;;;;5072427;28;20049;-53
2022/08/13 10:31:07;;;;;;;1.65;0.95;;;29.00;33.60;;;;;;5071725;28;20407;-51
2022/08/13 10:33:59;;;;;;;3.63;1.17;;;29.10;32.70;;;;;;5057129;28;20037;-52
2022/08/13 10:36:32;;;;;;;1.17;1.08;;;29.20;32.80;;;;;;5064870;28;20044;-50
2022/08/13 10:39:06;;;;;;;1.60;0.90;;;29.20;32.40;;;;;;5053094;28;20412;-53
2022/08/13 10:41:38;;;;;;;1.23;1.20;;;29.30;32.50;;;;;;5059079;28;20045;-48
2022/08/13 10:44:24;;;;;;;1.13;1.00;;;29.40;31.90;;;;;;5056386;28;20120;-52
2022/08/13 10:46:54;;;;;;;1.50;1.10;;;29.40;31.70;;;;;;5071184;28;20032;-49
2022/08/13 10:49:25;;;;;;;3.22;0.95;;;29.50;32.10;;;;;;5071437;28;20075;-49
2022/08/13 10:51:51;;;;;;;0.90;0.90;;;29.50;31.90;;;;;;5060538;28;20045;-48
2022/08/13 10:54:33;;;;;;;2.13;0.77;;;29.60;31.70;;;;;;5057219;28;20040;-54
2022/08/13 10:57:07;;;;;;;1.25;1.15;;;29.70;32.10;;;;;;5071085;28;20101;-53
2022/08/13 10:59:40;;;;;;;8.45;1.52;;;29.70;31.90;;;;;;5071142;28;20090;-50
2022/08/13 11:02:07;;;;;;;0.80;0.80;;;29.80;31.80;;;;;;5053179;28;20049;-53
2022/08/13 11:04:47;;;;;;;1.75;1.10;;;29.80;31.50;;;;;;5068311;28;20500;-54
2022/08/13 11:07:18;;;;;;;1.30;1.23;;;29.90;31.10;;;;;;5071062;28;20067;-53
2022/08/13 11:09:50;;;;;;;1.63;1.00;;;29.90;31.20;;;;;;5064751;28;20049;-51
2022/08/13 11:12:17;;;;;;;4.43;1.10;;;30.00;31.10;;;;;;5062334;28;20274;-52
2022/08/13 11:14:55;;;;;;;1.30;1.20;;;30.00;31.30;;;;;;5069722;28;20063;-54
2022/08/13 11:17:24;;;;;;;1.98;1.60;;;30.10;30.50;;;;;;5071145;28;20509;-51
2022/08/13 11:20:17;;;;;;;3.83;1.20;;;30.10;30.50;;;;;;5049621;28;20112;-50
2022/08/13 11:22:55;;;;;;;1.33;1.23;;;30.20;30.60;;;;;;5054551;28;20451;-51
2022/08/13 11:25:25;;;;;;;1.30;1.10;;;30.30;30.60;;;;;;5055426;28;20044;-49
2022/08/13 11:28:12;;;;;;;0.80;0.80;;;30.30;31.30;;;;;;5069049;28;20445;-53
2022/08/13 11:30:44;;;;;;;1.23;1.13;;;30.30;31.40;;;;;;5052161;28;20727;-52
2022/08/13 11:33:15;;;;;;;1.20;1.08;;;30.40;31.60;;;;;;5070170;28;20087;-53
2022/08/13 11:35:43;;;;;;;1.13;1.00;;;30.50;31.30;;;;;;5070433;28;20052;-50
2022/08/13 11:38:19;;;;;;;1.13;1.13;;;30.60;31.00;;;;;;5063225;28;20075;-49
2022/08/13 11:40:51;;;;;;;1.77;1.35;;;30.70;30.70;;;;;;5051397;28;20045;-49
2022/08/13 11:43:24;;;;;;;1.05;1.05;;;30.80;30.60;;;;;;5054016;28;20051;-51
2022/08/13 11:46:14;;;;;;;;;;;30.80;31.10;;;;;;5055724;28;20119;-54
2022/08/13 11:48:43;;;;;;;1.35;0.82;;;31.00;31.00;;;;;;5043762;28;19920;-53
2022/08/13 11:51:31;;;;;;;2.15;1.40;;;31.00;30.70;;;;;;5050472;28;20045;-53
2022/08/13 11:54:19;;;;;;;1.60;1.33;;;31.00;30.30;;;;;;5069757;28;20053;-53
2022/08/13 11:57:10;;;;;;;2.17;1.10;;;31.10;29.90;;;;;;5038451;28;20049;-53
2022/08/13 11:59:42;;;;;;;1.00;0.90;;;31.20;29.80;;;;;;5028148;28;20506;-51
2022/08/13 12:02:21;;;;;;;2.42;0.95;;;31.20;29.80;;;;;;5070189;28;20033;-52
2022/08/13 12:05:06;;;;;;;1.30;1.20;;;31.30;29.70;;;;;;5069725;28;20560;-52
2022/08/13 12:07:40;;;;;;;1.83;1.30;;;31.30;29.60;;;;;;5047744;28;20418;-54
2022/08/13 12:10:14;;;;;;;2.80;1.10;;;31.40;29.20;;;;;;5056088;28;20047;-52
2022/08/13 12:13:01;;;;;;;1.48;1.25;;;31.50;30.00;;;;;;5050007;28;20056;-50
2022/08/13 12:15:30;;;;;;;1.17;1.17;;;31.50;29.80;;;;;;5046063;28;20040;-53
2022/08/13 12:18:18;;;;;;;2.40;1.40;;;31.60;29.60;;;;;;5057068;28;20050;-53
2022/08/13 12:20:45;;;;;;;1.67;1.25;;;31.70;29.50;;;;;;5069721;28;20064;-49
2022/08/13 12:23:12;;;;;;;1.20;1.10;;;31.70;29.10;;;;;;5064995;28;20041;-53
2022/08/13 12:25:47;;;;;;;1.20;1.10;;;31.80;28.80;;;;;;5051445;28;20122;-52
2022/08/13 12:28:31;;;;;;;1.00;1.00;;;31.90;28.60;;;;;;5069207;28;20047;-54
2022/08/13 12:31:05;;;;;;;1.45;1.10;;;32.00;28.50;;;;;;5061761;28;20049;-54
2022/08/13 12:33:37;;;;;;;1.13;1.02;;;32.00;28.90;;;;;;5047558;28;20045;-51
2022/08/13 12:36:11;;;;;;;1.00;1.00;;;32.10;28.50;;;;;;5050483;28;20047;-53
2022/08/13 12:38:44;;;;;;;1.65;1.30;;;32.20;28.60;;;;;;5059927;28;20044;-52
2022/08/13 12:41:27;;;;;;;0.93;0.93;;;32.30;28.50;;;;;;5031306;28;20108;-49
2022/08/13 12:44:12;;;;;;;1.40;1.15;;;32.30;28.60;;;;;;5046219;28;20045;-49
2022/08/13 12:47:00;;;;;;;2.88;0.95;;;32.40;28.80;;;;;;5058955;28;20116;-53
2022/08/13 12:49:29;;;;;;;6.93;1.20;;;32.50;28.50;;;;;;5070261;28;20036;-50
2022/08/13 12:51:55;;;;;;;1.23;1.13;;;32.50;28.50;;;;;;5070195;28;20044;-53
2022/08/13 12:54:26;;;;;;;1.63;1.52;;;32.60;28.40;;;;;;5044216;28;20061;-54
2022/08/13 12:57:14;;;;;;;1.50;1.00;;;32.70;28.40;;;;;;5057510;28;20069;-52
2022/08/13 13:00:01;;;;;;;1.30;1.15;;;32.90;27.90;;;;;;5047817;28;20134;-54
2022/08/13 13:02:33;;;;;;;1.38;1.27;;;33.00;27.90;;;;;;5051911;28;20048;-50
2022/08/13 13:05:01;;;;;;;1.00;1.00;;;33.00;27.70;;;;;;5051432;28;20583;-53
2022/08/13 13:07:48;;;;;;;1.35;1.25;;;33.10;27.80;;;;;;5049530;28;20044;-53
2022/08/13 13:10:36;;;;;;;1.17;1.00;;;33.20;27.50;;;;;;5052529;28;20065;-50
2022/08/13 13:13:04;;;;;;;1.55;1.10;;;33.30;27.40;;;;;;5045013;28;20051;-54
2022/08/13 13:15:53;;;;;;;1.13;1.05;;;33.50;27.40;;;;;;5070606;28;20056;-51
2022/08/13 13:18:42;;;;;;;1.95;1.15;;;33.60;27.30;;;;;;5047189;28;20049;-54
2022/08/13 13:21:33;;;;;;;1.02;1.02;;;33.70;27.30;;;;;;5048650;28;20045;-53
2022/08/13 13:24:09;;;;;;;1.33;1.30;;;33.80;27.30;;;;;;5061401;28;20047;-52
2022/08/13 13:26:46;;;;;;;2.58;1.10;;;33.90;27.00;;;;;;5071899;28;20044;-51
2022/08/13 13:29:25;;;;;;;1.10;1.10;;;34.00;27.40;;;;;;5048825;28;20099;-52
2022/08/13 13:31:53;;;;;;;1.85;1.50;;;34.20;27.10;;;;;;5053453;28;20063;-53
2022/08/13 13:34:43;;;;;;;1.05;1.02;;;34.30;26.80;;;;;;5064571;28;20048;-53
2022/08/13 13:37:13;;;;;;;1.35;1.20;;;34.50;26.80;;;;;;5063537;28;20102;-52
2022/08/13 13:39:41;;;;;;;3.08;1.10;;;34.80;26.80;;;;;;5051423;28;20106;-53
2022/08/13 13:42:10;;;;;;;0.82;0.82;;;35.30;27.00;;;;;;5047253;28;20040;-54
2022/08/13 13:44:54;;;;;;;0.95;0.95;;;35.90;26.80;;;;;;5068931;28;20040;-52
2022/08/13 13:47:21;;;;;;;1.27;0.93;;;36.90;26.50;;;;;;5070976;28;20450;-52
2022/08/13 13:49:48;;;;;;;3.15;1.13;;;37.80;26.20;;;;;;5044451;28;20051;-53
2022/08/13 13:52:16;;;;;;;1.10;0.82;;;38.90;25.90;;;;;;5055822;28;20070;-54
2022/08/13 13:54:45;;;;;;;1.73;0.80;;;40.00;25.50;;;;;;5054489;28;20037;-53
2022/08/13 13:57:25;;;;;;;2.90;1.10;;;41.10;24.90;;;;;;5046896;28;20468;-53
2022/08/13 14:00:10;;;;;;;0.98;0.90;;;42.30;24.50;;;;;;5056600;28;20132;-52